Time;durP1;ratioP1;P1;durP2;ratioP2;P2;SDS_P1;SDS_P2;PMS_P1;PMS_P2;Temp;Humidity;BMP_temperature;BMP_pressure;BME280_temperature;BME280_humidity;BME280_pressure;Samples;Min_cycle;Max_cycle;Signal;HPM_P1;HPM_P2
2022/10/05 00:01:51;;;;;;;0.20;0.20;;;16.20;99.90;16.80;101574.00;;;;5050595;28;20558;-70
2022/10/05 00:04:21;;;;;;;0.20;0.20;;;16.20;99.90;16.70;101570.00;;;;5051146;28;20183;-70
2022/10/05 00:07:15;;;;;;;0.50;0.50;;;16.30;99.90;16.60;101572.00;;;;5051065;28;20252;-69
2022/10/05 00:09:44;;;;;;;0.20;0.20;;;16.20;99.90;16.70;101581.00;;;;5035850;28;20176;-69
2022/10/05 00:12:17;;;;;;;0.27;0.27;;;16.20;99.90;16.40;101566.00;;;;5050980;28;20227;-69
2022/10/05 00:14:47;;;;;;;0.40;0.40;;;16.20;99.90;16.50;101556.00;;;;5051098;28;20717;-69
2022/10/05 00:17:20;;;;;;;0.20;0.20;;;16.10;99.90;16.40;101562.00;;;;5035153;28;20649;-69
2022/10/05 00:19:50;;;;;;;0.47;0.47;;;16.00;99.90;16.50;101537.00;;;;5050871;28;20528;-69
2022/10/05 00:22:21;;;;;;;0.40;0.40;;;16.00;99.90;16.60;101565.00;;;;5050033;28;20642;-69
2022/10/05 00:24:54;;;;;;;0.47;0.47;;;16.10;99.90;16.50;101511.00;;;;5034619;28;20196;-69
2022/10/05 00:27:24;;;;;;;0.20;0.20;;;16.10;99.90;16.50;101555.00;;;;5049563;28;20197;-69
2022/10/05 00:29:53;;;;;;;0.73;0.73;;;16.00;99.90;16.60;101542.00;;;;5030839;28;20183;-69
2022/10/05 00:32:19;;;;;;;3.20;2.43;;;16.10;99.90;16.40;101553.00;;;;5029859;28;20248;-69
2022/10/05 00:34:46;;;;;;;0.30;0.30;;;16.10;99.90;16.40;101542.00;;;;5051175;28;20184;-70
2022/10/05 00:37:13;;;;;;;5.03;0.87;;;16.00;99.90;16.80;101559.00;;;;5050154;28;20198;-69
2022/10/05 00:39:40;;;;;;;1.13;1.00;;;16.10;99.90;16.30;101516.00;;;;5033919;28;20188;-69
2022/10/05 00:42:39;;;;;;;0.20;0.20;;;16.00;99.90;16.40;101514.00;;;;5033744;28;20210;-70
2022/10/05 00:45:28;;;;;;;0.27;0.27;;;16.00;99.90;16.20;101511.00;;;;5034353;28;20222;-69
2022/10/05 00:48:18;;;;;;;0.40;0.40;;;15.90;99.90;16.30;101499.00;;;;5029347;28;20180;-69
2022/10/05 00:51:23;;;;;;;0.20;0.20;;;15.90;99.90;16.30;101540.00;;;;5055705;28;20220;-69
2022/10/05 00:54:27;;;;;;;0.20;0.20;;;15.80;99.90;16.30;101505.00;;;;5033667;28;20192;-69
2022/10/05 00:57:09;;;;;;;0.30;0.30;;;15.80;99.90;16.30;101544.00;;;;5032633;28;20197;-68
2022/10/05 00:59:57;;;;;;;0.30;0.30;;;15.90;99.90;16.60;101536.00;;;;5034895;28;20264;-68
2022/10/05 01:02:34;;;;;;;0.93;0.57;;;16.00;99.90;16.30;101541.00;;;;5034123;28;20232;-68
2022/10/05 01:05:32;;;;;;;0.20;0.20;;;15.90;99.90;16.50;101536.00;;;;5050005;28;20259;-68
2022/10/05 01:08:30;;;;;;;0.50;0.50;;;16.00;99.90;16.50;101534.00;;;;5033345;28;20285;-69
2022/10/05 01:11:49;;;;;;;0.30;0.30;;;16.00;99.90;16.60;101528.00;;;;5034551;28;20171;-69
2022/10/05 01:14:18;;;;;;;0.80;0.80;;;16.10;99.90;16.50;101533.00;;;;5032622;28;20616;-69
2022/10/05 01:16:52;;;;;;;1.00;0.93;;;16.10;99.90;16.60;101524.00;;;;5034234;28;20186;-69
2022/10/05 01:19:36;;;;;;;0.30;0.30;;;16.10;99.90;16.50;101521.00;;;;5049760;28;20650;-69
2022/10/05 01:22:36;;;;;;;0.20;0.20;;;16.10;99.90;16.60;101527.00;;;;5049749;28;20188;-69
2022/10/05 01:25:19;;;;;;;1.03;0.67;;;16.00;99.90;16.70;101520.00;;;;5034353;28;20262;-69
2022/10/05 01:27:59;;;;;;;0.50;0.50;;;16.10;99.90;16.30;101523.00;;;;5034063;28;20184;-69
2022/10/05 01:30:27;;;;;;;0.30;0.30;;;16.00;99.90;16.40;101524.00;;;;5049531;28;20640;-69
2022/10/05 01:33:43;;;;;;;0.33;0.33;;;15.90;99.90;16.30;101522.00;;;;5049143;28;20214;-69
2022/10/05 01:36:30;;;;;;;0.20;0.20;;;15.90;99.90;16.50;101502.00;;;;5026959;28;20194;-69
2022/10/05 01:39:24;;;;;;;0.27;0.27;;;16.00;99.90;16.40;101509.00;;;;5049180;28;20649;-70
2022/10/05 01:42:14;;;;;;;0.30;0.30;;;16.00;99.90;16.60;101501.00;;;;5033724;28;20700;-70
2022/10/05 01:45:16;;;;;;;0.53;0.53;;;16.10;99.90;16.90;101484.00;;;;5048817;28;20185;-70
2022/10/05 01:48:05;;;;;;;0.20;0.20;;;16.30;99.90;16.70;101492.00;;;;5033721;28;20679;-70
2022/10/05 01:51:00;;;;;;;0.20;0.20;;;16.10;99.90;16.40;101493.00;;;;5032076;28;20193;-69
2022/10/05 01:53:45;;;;;;;1.27;1.27;;;16.10;99.90;16.30;101439.00;;;;5033600;28;20205;-70
2022/10/05 01:56:48;;;;;;;0.70;0.70;;;16.00;99.90;16.50;101478.00;;;;5032825;28;20184;-70
2022/10/05 01:59:55;;;;;;;0.20;0.20;;;16.00;99.90;16.60;101431.00;;;;5031941;28;20173;-70
2022/10/05 02:02:23;;;;;;;0.30;0.30;;;16.00;99.90;16.20;101471.00;;;;5033075;28;20207;-69
2022/10/05 02:05:15;;;;;;;0.30;0.30;;;15.90;99.90;16.40;101467.00;;;;5049076;28;20534;-70
2022/10/05 02:08:01;;;;;;;0.20;0.20;;;15.90;99.90;16.30;101448.00;;;;5031932;28;20218;-70
2022/10/05 02:10:35;;;;;;;0.40;0.40;;;16.00;99.90;16.50;101449.00;;;;5049236;28;20196;-69
2022/10/05 02:13:10;;;;;;;0.27;0.27;;;16.00;99.90;16.50;101452.00;;;;5048801;28;20223;-69
2022/10/05 02:15:56;;;;;;;1.20;0.73;;;16.00;99.90;16.20;101455.00;;;;5015883;28;20181;-70
2022/10/05 02:18:39;;;;;;;0.20;0.20;;;15.90;99.90;16.40;101441.00;;;;5048863;28;20182;-69
2022/10/05 02:21:07;;;;;;;0.70;0.70;;;15.90;99.90;16.30;101432.00;;;;5048848;28;20188;-69
2022/10/05 02:23:39;;;;;;;0.63;0.63;;;15.90;99.90;16.30;101450.00;;;;5048894;28;20197;-69
2022/10/05 02:26:08;;;;;;;1.00;1.00;;;15.90;99.90;16.30;101441.00;;;;5048755;28;20174;-69
2022/10/05 02:28:49;;;;;;;0.40;0.40;;;15.90;99.90;16.30;101435.00;;;;5048080;28;20152;-69
2022/10/05 02:31:48;;;;;;;0.73;0.70;;;15.90;99.90;16.30;101429.00;;;;5048399;28;20174;-69
2022/10/05 02:34:28;;;;;;;0.47;0.47;;;15.90;99.90;16.00;101422.00;;;;5032078;28;20578;-69
2022/10/05 02:37:06;;;;;;;0.40;0.40;;;15.80;99.90;16.30;101423.00;;;;5031852;28;20683;-69
2022/10/05 02:40:07;;;;;;;0.20;0.20;;;15.80;99.90;16.70;101416.00;;;;5033343;28;20551;-69
2022/10/05 02:43:01;;;;;;;0.20;0.20;;;16.00;99.90;16.50;101409.00;;;;5031488;28;20212;-68
2022/10/05 02:45:55;;;;;;;2.30;1.57;;;16.00;99.90;16.00;101418.00;;;;5033345;28;20213;-69
2022/10/05 02:49:08;;;;;;;0.30;0.30;;;15.90;99.90;16.50;101409.00;;;;5033322;28;20190;-69
2022/10/05 02:51:48;;;;;;;0.20;0.20;;;15.90;99.90;16.30;101416.00;;;;5032997;28;20210;-69
2022/10/05 02:55:17;;;;;;;0.97;0.93;;;15.90;99.90;16.10;101397.00;;;;5048411;28;20258;-69
2022/10/05 02:57:45;;;;;;;0.40;0.40;;;15.90;99.90;16.10;101359.00;;;;5014161;28;20551;-70
2022/10/05 03:00:16;;;;;;;0.30;0.30;;;15.80;99.90;16.30;101403.00;;;;5033148;28;20181;-70
2022/10/05 03:02:54;;;;;;;0.20;0.20;;;15.90;99.90;16.40;101408.00;;;;5048189;28;20227;-69
2022/10/05 03:05:30;;;;;;;0.70;0.70;;;16.00;99.90;16.20;101409.00;;;;5033037;28;20192;-70
2022/10/05 03:08:08;;;;;;;0.60;0.60;;;16.00;99.90;16.20;101397.00;;;;5048065;28;20196;-70
2022/10/05 03:10:58;;;;;;;0.43;0.43;;;15.90;99.90;16.10;101395.00;;;;5048200;28;20262;-70
2022/10/05 03:13:47;;;;;;;0.20;0.20;;;15.80;99.90;16.00;101409.00;;;;5048489;28;20234;-70
2022/10/05 03:16:40;;;;;;;1.40;1.03;;;15.90;99.90;15.90;101401.00;;;;5048261;28;20526;-70
2022/10/05 03:19:35;;;;;;;0.50;0.50;;;15.80;99.90;16.40;101406.00;;;;5034791;28;20541;-69
2022/10/05 03:22:26;;;;;;;0.20;0.20;;;15.80;99.90;17.10;101414.00;;;;5036579;28;20182;-69
2022/10/05 03:25:04;;;;;;;0.20;0.20;;;16.10;99.90;17.10;101411.00;;;;5035832;28;20541;-69
2022/10/05 03:27:51;;;;;;;0.20;0.20;;;16.40;99.90;17.30;101408.00;;;;5036808;28;20164;-69
2022/10/05 03:30:22;;;;;;;0.20;0.20;;;16.50;99.90;16.60;101403.00;;;;5036337;28;20663;-69
2022/10/05 03:33:08;;;;;;;0.20;0.20;;;16.30;99.90;16.50;101376.00;;;;5051596;28;20210;-69
2022/10/05 03:35:59;;;;;;;0.47;0.47;;;16.10;99.90;16.20;101403.00;;;;5036443;28;20668;-69
2022/10/05 03:38:57;;;;;;;0.83;0.70;;;16.00;99.90;16.40;101401.00;;;;5051730;28;20177;-69
2022/10/05 03:41:50;;;;;;;0.20;0.20;;;16.10;99.90;16.60;101401.00;;;;5035861;28;20181;-69
2022/10/05 03:44:30;;;;;;;0.20;0.20;;;16.10;99.90;16.70;101396.00;;;;5051650;28;20252;-69
2022/10/05 03:47:27;;;;;;;0.20;0.20;;;16.20;99.90;16.70;101390.00;;;;5036235;28;20176;-69
2022/10/05 03:50:25;;;;;;;0.20;0.20;;;16.10;99.90;16.70;101348.00;;;;5034642;28;20192;-69
2022/10/05 03:53:09;;;;;;;0.87;0.87;;;16.10;99.90;17.00;101389.00;;;;5035406;28;20219;-69
2022/10/05 03:55:44;;;;;;;0.20;0.20;;;16.20;99.90;16.90;101340.00;;;;5051066;28;20516;-69
2022/10/05 03:58:23;;;;;;;0.30;0.30;;;16.20;99.90;16.90;101362.00;;;;5051216;28;20183;-69
2022/10/05 04:00:56;;;;;;;0.20;0.20;;;16.30;99.90;16.60;101395.00;;;;5051047;28;20589;-69
2022/10/05 04:03:53;;;;;;;0.20;0.20;;;16.20;99.90;16.10;101349.00;;;;5051067;28;20207;-70
2022/10/05 04:06:31;;;;;;;0.60;0.60;;;16.00;99.90;16.10;101395.00;;;;5034376;28;20189;-69
2022/10/05 04:09:38;;;;;;;0.20;0.20;;;15.90;99.90;16.10;101379.00;;;;5034451;28;20182;-69
2022/10/05 04:12:35;;;;;;;0.20;0.20;;;15.90;99.90;16.50;101374.00;;;;5033631;28;20277;-69
2022/10/05 04:15:32;;;;;;;1.27;1.27;;;15.90;99.90;16.30;101387.00;;;;5050859;28;20171;-68
2022/10/05 04:18:29;;;;;;;0.77;0.70;;;15.90;99.90;16.30;101335.00;;;;5051017;28;20175;-69
2022/10/05 04:21:04;;;;;;;0.30;0.30;;;15.90;99.90;16.30;101374.00;;;;5033850;28;20202;-69
2022/10/05 04:23:39;;;;;;;0.20;0.20;;;15.90;99.90;16.50;101385.00;;;;5050850;28;20182;-69
2022/10/05 04:26:16;;;;;;;0.30;0.30;;;15.90;99.90;16.30;101378.00;;;;5050994;28;20187;-69
2022/10/05 04:28:58;;;;;;;0.20;0.20;;;15.90;99.90;16.20;101364.00;;;;5050894;28;20174;-69
2022/10/05 04:32:07;;;;;;;0.93;0.70;;;15.80;99.90;16.40;101363.00;;;;5050306;28;20225;-69
2022/10/05 04:34:51;;;;;;;0.50;0.50;;;15.90;99.90;16.10;101365.00;;;;5030861;28;20187;-69
2022/10/05 04:37:36;;;;;;;1.27;0.73;;;15.80;99.90;16.10;101366.00;;;;5014975;28;20643;-69
2022/10/05 04:40:27;;;;;;;0.90;0.90;;;15.80;99.90;15.70;101308.00;;;;5015298;28;20187;-69
2022/10/05 04:43:18;;;;;;;0.50;0.50;;;15.60;99.90;16.00;101336.00;;;;5015186;28;20209;-68
2022/10/05 04:46:02;;;;;;;0.20;0.20;;;15.60;99.90;16.00;101333.00;;;;5014394;28;20231;-69
2022/10/05 04:49:28;;;;;;;0.60;0.50;;;15.70;99.90;16.40;101346.00;;;;5015282;28;20205;-69
2022/10/05 04:52:28;;;;;;;0.53;0.53;;;15.80;99.90;16.50;101347.00;;;;5013513;28;20201;-69
2022/10/05 04:55:40;;;;;;;1.17;0.63;;;15.90;99.90;16.00;101340.00;;;;5014163;28;20205;-69
2022/10/05 04:59:04;;;;;;;0.60;0.60;;;15.80;99.90;16.10;101341.00;;;;5014814;28;20178;-68
2022/10/05 05:02:02;;;;;;;0.30;0.30;;;15.80;99.90;16.10;101338.00;;;;5003620;28;20212;-68
2022/10/05 05:04:51;;;;;;;4.87;0.50;;;15.80;99.90;16.10;101331.00;;;;5013775;28;20601;-69
2022/10/05 05:08:06;;;;;;;1.03;1.03;;;15.80;99.90;16.00;101335.00;;;;5013514;28;20310;-69
2022/10/05 05:11:04;;;;;;;0.23;0.23;;;15.70;99.90;16.10;101324.00;;;;5013424;28;20649;-68
2022/10/05 05:13:46;;;;;;;0.20;0.20;;;15.70;99.90;15.90;101325.00;;;;5014647;28;20210;-69
2022/10/05 05:16:30;;;;;;;0.30;0.30;;;15.70;99.90;15.90;101320.00;;;;5014681;28;20545;-69
2022/10/05 05:19:17;;;;;;;0.87;0.87;;;15.70;99.90;15.90;101317.00;;;;5013342;28;20544;-69
2022/10/05 05:22:05;;;;;;;0.20;0.20;;;15.70;99.90;15.80;101307.00;;;;5014398;28;20240;-69
2022/10/05 05:24:34;;;;;;;0.53;0.53;;;15.60;99.90;16.30;101317.00;;;;5013638;28;20192;-69
2022/10/05 05:27:23;;;;;;;0.30;0.30;;;15.70;99.90;15.90;101303.00;;;;5013052;28;20220;-68
2022/10/05 05:29:58;;;;;;;3.60;0.60;;;15.70;99.90;15.90;101308.00;;;;5014587;28;20182;-68
2022/10/05 05:33:06;;;;;;;0.27;0.27;;;15.60;99.90;15.80;101311.00;;;;5016286;28;20248;-68
2022/10/05 05:35:50;;;;;;;0.43;0.43;;;15.60;99.90;15.80;101267.00;;;;5033477;28;20188;-68
2022/10/05 05:38:27;;;;;;;0.30;0.30;;;15.50;99.90;16.40;101314.00;;;;5034244;28;20645;-68
2022/10/05 05:41:11;;;;;;;0.20;0.20;;;15.70;99.90;15.90;101308.00;;;;5033579;28;20182;-68
2022/10/05 05:43:55;;;;;;;0.30;0.30;;;15.80;99.90;15.90;101267.00;;;;5016313;28;20527;-69
2022/10/05 05:46:39;;;;;;;1.37;1.27;;;15.70;99.90;16.00;101315.00;;;;5033833;28;20181;-68
2022/10/05 05:49:51;;;;;;;0.87;0.87;;;15.60;99.90;15.90;101316.00;;;;5032747;28;20281;-69
2022/10/05 05:52:27;;;;;;;0.33;0.33;;;15.70;99.90;16.00;101306.00;;;;5049084;28;20209;-68
2022/10/05 05:55:07;;;;;;;0.60;0.60;;;15.70;99.90;15.90;101284.00;;;;5033631;28;20191;-68
2022/10/05 05:57:49;;;;;;;1.23;1.13;;;15.70;99.90;15.90;101313.00;;;;5012588;28;20178;-69
2022/10/05 06:00:18;;;;;;;0.57;0.57;;;15.70;99.90;16.00;101306.00;;;;5013110;28;20193;-69
2022/10/05 06:03:15;;;;;;;1.03;0.90;;;15.70;99.90;16.30;101310.00;;;;5015532;28;20200;-69
2022/10/05 06:05:47;;;;;;;0.63;0.57;;;15.90;99.90;16.20;101312.00;;;;5048867;28;20176;-69
2022/10/05 06:08:34;;;;;;;0.20;0.20;;;15.80;99.90;16.70;101314.00;;;;5048892;28;20177;-69
2022/10/05 06:11:17;;;;;;;0.30;0.30;;;16.00;99.90;16.40;101302.00;;;;5049170;28;20205;-69
2022/10/05 06:13:44;;;;;;;0.60;0.60;;;16.10;99.90;16.50;101295.00;;;;5033721;28;20189;-70
2022/10/05 06:16:31;;;;;;;0.60;0.60;;;16.10;99.90;16.40;101319.00;;;;5048857;28;20183;-70
2022/10/05 06:19:16;;;;;;;0.50;0.50;;;16.00;99.90;16.90;101314.00;;;;5048700;28;20223;-70
2022/10/05 06:22:11;;;;;;;0.20;0.20;;;16.20;99.90;16.50;101321.00;;;;5048595;28;20183;-69
2022/10/05 06:25:04;;;;;;;1.03;0.73;;;16.10;99.90;16.30;101316.00;;;;5032177;28;20186;-69
2022/10/05 06:28:10;;;;;;;0.67;0.67;;;16.10;99.90;16.30;101313.00;;;;5048779;28;20189;-69
2022/10/05 06:31:06;;;;;;;0.83;0.83;;;16.10;99.90;16.50;101308.00;;;;5033390;28;20209;-69
2022/10/05 06:33:51;;;;;;;0.20;0.20;;;16.10;99.90;16.60;101315.00;;;;5032924;28;20225;-69
2022/10/05 06:36:46;;;;;;;0.20;0.20;;;16.30;99.90;17.10;101326.00;;;;5049120;28;20170;-70
2022/10/05 06:39:41;;;;;;;0.20;0.20;;;16.40;99.90;17.00;101322.00;;;;5032964;28;20184;-70
2022/10/05 06:42:48;;;;;;;0.30;0.30;;;16.50;99.90;17.50;101316.00;;;;5048546;28;20176;-70
2022/10/05 06:45:38;;;;;;;0.20;0.20;;;16.60;99.90;17.40;101322.00;;;;5048615;28;20177;-70
2022/10/05 06:48:25;;;;;;;0.20;0.20;;;16.60;99.90;18.10;101332.00;;;;5032944;28;20557;-70
2022/10/05 06:51:37;;;;;;;0.27;0.27;;;16.90;99.90;17.50;101324.00;;;;5033002;28;20180;-69
2022/10/05 06:54:42;;;;;;;0.20;0.20;;;17.00;99.90;17.50;101315.00;;;;5028884;28;20201;-69
2022/10/05 06:57:29;;;;;;;0.30;0.30;;;16.80;99.90;16.70;101319.00;;;;5052905;28;20193;-70
2022/10/05 07:00:04;;;;;;;0.20;0.20;;;16.60;99.90;16.80;101322.00;;;;5037182;28;20227;-70
2022/10/05 07:03:11;;;;;;;0.20;0.20;;;16.50;99.90;16.80;101285.00;;;;5052033;28;20184;-70
2022/10/05 07:06:08;;;;;;;0.20;0.20;;;16.50;99.90;16.90;101318.00;;;;5052281;28;20191;-70
2022/10/05 07:09:08;;;;;;;0.20;0.20;;;16.60;99.90;17.10;101321.00;;;;5036685;28;20184;-70
2022/10/05 07:11:41;;;;;;;0.50;0.50;;;16.60;99.90;16.70;101319.00;;;;5036725;28;20180;-68
2022/10/05 07:14:35;;;;;;;0.50;0.50;;;16.40;99.90;16.70;101292.00;;;;5052497;28;20604;-69
2022/10/05 07:17:25;;;;;;;0.20;0.20;;;16.40;99.90;16.60;101316.00;;;;5036538;28;20264;-69
2022/10/05 07:20:29;;;;;;;0.20;0.20;;;16.40;99.90;16.90;101324.00;;;;5030361;28;20198;-69
2022/10/05 07:23:18;;;;;;;0.37;0.37;;;16.50;99.90;17.30;101321.00;;;;5034841;28;20685;-69
2022/10/05 07:26:15;;;;;;;0.20;0.20;;;16.60;99.90;17.90;101322.00;;;;5051734;28;20623;-70
2022/10/05 07:29:05;;;;;;;0.40;0.40;;;16.90;99.90;16.50;101313.00;;;;5034378;28;20297;-70
2022/10/05 07:31:51;;;;;;;0.20;0.20;;;16.50;99.90;16.90;101299.00;;;;5034570;28;20207;-70
2022/10/05 07:34:51;;;;;;;0.27;0.27;;;16.50;99.90;17.30;101308.00;;;;5048812;28;20189;-69
2022/10/05 07:37:56;;;;;;;0.30;0.30;;;16.60;99.90;16.90;101314.00;;;;5034505;28;20179;-70
2022/10/05 07:40:36;;;;;;;0.20;0.20;;;16.60;99.90;17.30;101282.00;;;;5035238;28;20194;-70
2022/10/05 07:43:43;;;;;;;0.40;0.40;;;16.70;99.90;17.20;101317.00;;;;5024198;28;20192;-70
2022/10/05 07:46:29;;;;;;;0.20;0.20;;;16.80;99.90;18.00;101327.00;;;;5034740;28;20177;-70
2022/10/05 07:49:07;;;;;;;2.20;2.00;;;17.00;99.90;17.70;101329.00;;;;5036082;28;20165;-70
2022/10/05 07:51:45;;;;;;;0.20;0.20;;;16.90;99.90;17.20;101323.00;;;;5034388;28;20190;-70
2022/10/05 07:54:27;;;;;;;2.00;2.00;;;16.90;99.90;17.40;101318.00;;;;5034847;28;20507;-70
2022/10/05 07:57:22;;;;;;;0.27;0.27;;;16.80;99.90;17.60;101323.00;;;;5009236;28;20189;-70
2022/10/05 08:00:42;;;;;;;0.20;0.20;;;16.90;99.90;17.70;101309.00;;;;5025466;28;20200;-70
2022/10/05 08:03:48;;;;;;;0.37;0.37;;;17.00;99.90;17.40;101311.00;;;;5030264;28;20236;-70
2022/10/05 08:07:00;;;;;;;0.40;0.40;;;17.00;99.90;17.50;101306.00;;;;5003762;28;20193;-70
2022/10/05 08:09:55;;;;;;;0.40;0.40;;;17.10;99.90;17.40;101304.00;;;;5013760;28;20714;-70
2022/10/05 08:13:18;;;;;;;1.03;1.03;;;17.00;99.90;17.60;101310.00;;;;5035344;28;20209;-70
2022/10/05 08:16:11;;;;;;;0.40;0.40;;;17.10;99.90;17.50;101319.00;;;;5035115;28;20176;-72
2022/10/05 08:18:47;;;;;;;0.70;0.70;;;17.20;99.90;17.50;101307.00;;;;5034452;28;20303;-70
2022/10/05 08:21:40;;;;;;;0.37;0.37;;;17.20;99.90;17.50;101315.00;;;;5050821;28;20213;-70
2022/10/05 08:24:44;;;;;;;0.83;0.80;;;17.20;99.90;17.00;101308.00;;;;5035499;28;20189;-70
2022/10/05 08:28:10;;;;;;;0.20;0.20;;;16.80;99.90;16.90;101296.00;;;;5035179;28;20263;-70
2022/10/05 08:31:04;;;;;;;1.53;1.43;;;16.90;99.90;16.80;101298.00;;;;5033884;28;20318;-71
2022/10/05 08:33:59;;;;;;;0.60;0.60;;;16.80;99.90;17.20;101290.00;;;;5050631;28;20301;-70
2022/10/05 08:37:00;;;;;;;0.20;0.20;;;16.80;99.90;17.80;101295.00;;;;5030670;28;20177;-71
2022/10/05 08:40:16;;;;;;;0.30;0.30;;;17.10;99.90;17.50;101288.00;;;;5011919;28;20201;-71
2022/10/05 08:43:38;;;;;;;0.20;0.20;;;17.10;99.90;17.30;101296.00;;;;5015572;28;20544;-72
2022/10/05 08:46:28;;;;;;;1.30;1.00;;;17.00;99.90;17.40;101266.00;;;;5014700;28;20700;-70
2022/10/05 08:49:38;;;;;;;2.47;2.30;;;17.10;99.90;17.10;101288.00;;;;5013901;28;20274;-72
2022/10/05 08:52:24;;;;;;;0.80;0.80;;;16.90;99.90;17.40;101281.00;;;;5013691;28;20607;-71
2022/10/05 08:55:08;;;;;;;0.83;0.83;;;17.10;99.90;17.00;101281.00;;;;5013773;28;20297;-71
2022/10/05 08:57:52;;;;;;;0.20;0.20;;;16.90;99.90;17.50;101283.00;;;;5013994;28;20185;-71
2022/10/05 09:00:36;;;;;;;0.30;0.30;;;16.90;99.90;18.10;101281.00;;;;5013217;28;20184;-72
2022/10/05 09:03:50;;;;;;;2.80;0.43;;;17.30;99.90;17.30;101274.00;;;;5028385;28;20199;-73
2022/10/05 09:06:49;;;;;;;1.07;0.90;;;17.30;99.90;17.10;101227.00;;;;5014722;28;20184;-72
2022/10/05 09:09:53;;;;;;;0.30;0.30;;;17.00;99.90;17.90;101280.00;;;;5013675;28;20343;-71
2022/10/05 09:12:53;;;;;;;1.23;1.13;;;17.30;99.90;17.70;101245.00;;;;5014355;28;20735;-71
2022/10/05 09:15:35;;;;;;;0.20;0.20;;;17.40;99.90;17.70;101284.00;;;;5014474;28;20191;-71
2022/10/05 09:19:07;;;;;;;0.87;0.87;;;17.30;99.90;17.10;101273.00;;;;5013411;28;20185;-71
2022/10/05 09:21:45;;;;;;;0.70;0.70;;;17.20;99.90;17.10;101237.00;;;;5016500;28;20665;-71
2022/10/05 09:24:40;;;;;;;0.20;0.20;;;17.00;99.90;17.50;101272.00;;;;5014363;28;20178;-72
2022/10/05 09:27:17;;;;;;;0.53;0.53;;;17.10;99.90;17.20;101271.00;;;;5021456;28;20202;-73
2022/10/05 09:30:22;;;;;;;1.10;0.73;;;17.10;99.90;17.40;101270.00;;;;5029697;28;20682;-72
2022/10/05 09:33:09;;;;;;;0.50;0.50;;;17.30;99.90;17.60;101267.00;;;;5033759;28;20205;-72
2022/10/05 09:36:06;;;;;;;0.73;0.70;;;17.30;99.90;17.60;101267.00;;;;5037125;28;20189;-72
2022/10/05 09:38:56;;;;;;;0.20;0.20;;;17.30;99.90;18.20;101266.00;;;;5034185;28;20212;-72
2022/10/05 09:41:41;;;;;;;0.40;0.40;;;17.50;99.90;18.70;101265.00;;;;5049291;28;20189;-71
2022/10/05 09:44:31;;;;;;;0.70;0.70;;;17.80;99.90;18.40;101270.00;;;;5033640;28;20197;-72
2022/10/05 09:47:15;;;;;;;0.63;0.63;;;18.00;99.90;18.50;101269.00;;;;5033749;28;20218;-73
2022/10/05 09:50:12;;;;;;;0.57;0.57;;;18.10;99.90;18.10;101256.00;;;;5034007;28;20237;-77
2022/10/05 09:53:41;;;;;;;0.47;0.47;;;17.90;99.90;18.10;101250.00;;;;5033816;28;20240;-73
2022/10/05 09:56:59;;;;;;;0.70;0.70;;;17.80;99.90;17.80;101247.00;;;;5031634;28;20205;-73
2022/10/05 09:59:58;;;;;;;0.50;0.50;;;17.90;99.90;18.10;101252.00;;;;5048573;28;20740;-73
2022/10/05 10:03:05;;;;;;;0.40;0.40;;;17.70;99.90;18.60;101249.00;;;;5048950;28;20636;-71
2022/10/05 10:05:46;;;;;;;0.20;0.20;;;18.00;99.90;19.20;101253.00;;;;5033319;28;20267;-71
2022/10/05 10:08:50;;;;;;;0.32;0.32;;;18.40;99.90;19.90;101254.00;;;;5033043;28;20720;-71
2022/10/05 10:11:38;;;;;;;0.10;0.10;;;19.10;99.90;19.90;101245.00;;;;5033081;28;20232;-78
2022/10/05 10:14:32;;;;;;;0.25;0.25;;;19.20;99.90;20.20;101215.00;;;;5048409;28;20665;-78
2022/10/05 10:17:21;;;;;;;0.75;0.75;;;19.30;99.90;19.30;101230.00;;;;5033520;28;20183;-72
2022/10/05 10:20:11;;;;;;;10.13;1.98;;;19.00;99.90;19.40;101235.00;;;;5048411;28;20195;-71
2022/10/05 10:33:46;;;;;;;0.20;0.20;;;18.70;99.90;19.80;101248.00;;;;5090316;27;20567;-71
2022/10/05 10:36:41;;;;;;;1.13;1.02;;;19.20;99.90;19.90;101263.00;;;;5070724;28;20602;-72
2022/10/05 10:39:56;;;;;;;6.20;0.73;;;19.70;99.90;19.60;101246.00;;;;5070248;28;20177;-70
2022/10/05 10:43:07;;;;;;;0.30;0.30;;;19.30;99.90;19.80;101241.00;;;;5086179;28;20191;-71
2022/10/05 10:45:53;;;;;;;1.30;1.17;;;19.30;99.90;19.50;101248.00;;;;5070370;28;20174;-71
2022/10/05 10:48:49;;;;;;;0.28;0.28;;;19.20;99.90;19.80;101247.00;;;;5069954;28;20181;-70
2022/10/05 10:52:11;;;;;;;0.30;0.30;;;19.40;99.90;20.10;101218.00;;;;5085424;28;20327;-71
2022/10/05 10:55:35;;;;;;;0.20;0.20;;;19.80;99.90;20.20;101260.00;;;;5069756;28;20177;-71
2022/10/05 10:59:09;;;;;;;1.25;0.52;;;19.70;99.90;19.50;101223.00;;;;5085812;28;20566;-70
2022/10/05 11:02:02;;;;;;;0.70;0.70;;;19.40;99.90;19.40;101215.00;;;;5049039;28;20230;-71
2022/10/05 11:04:55;;;;;;;0.65;0.63;;;19.20;99.90;20.90;101237.00;;;;5069676;28;20181;-71
2022/10/05 11:11:26;;;;;;;0.77;0.38;;;20.10;99.90;20.60;101259.00;;;;5069853;28;20251;-71
2022/10/05 11:14:30;;;;;;;0.20;0.20;;;20.30;99.90;20.80;101243.00;;;;5069831;28;20178;-71
2022/10/05 11:17:30;;;;;;;0.40;0.40;;;20.10;99.90;21.40;101248.00;;;;5069797;28;20327;-71
2022/10/05 11:20:31;;;;;;;0.30;0.30;;;20.40;99.90;20.80;101229.00;;;;5085227;28;20181;-71
2022/10/05 11:22:59;;;;;;;1.45;1.33;;;20.00;99.90;19.80;101228.00;;;;5069718;28;20182;-71
2022/10/05 11:25:41;;;;;;;0.43;0.30;;;19.70;99.90;20.90;101224.00;;;;5069530;28;20170;-71
2022/10/05 11:28:41;;;;;;;0.20;0.20;;;19.90;99.90;21.00;101253.00;;;;5069525;28;20636;-71
2022/10/05 11:31:41;;;;;;;1.30;0.43;;;20.60;99.90;21.30;101260.00;;;;5084668;28;20287;-71
2022/10/05 11:34:40;;;;;;;0.20;0.20;;;20.60;99.90;21.20;101262.00;;;;5069565;28;20257;-71
2022/10/05 11:37:21;;;;;;;0.20;0.20;;;20.80;99.90;21.70;101270.00;;;;5048231;28;20193;-71
2022/10/05 11:40:50;;;;;;;0.20;0.20;;;20.80;99.90;21.80;101257.00;;;;5048951;28;20255;-71
2022/10/05 11:43:37;;;;;;;1.35;1.25;;;20.70;99.90;20.20;101216.00;;;;5002549;28;20210;-70
2022/10/05 11:46:21;;;;;;;0.38;0.38;;;20.30;99.90;20.40;101240.00;;;;5035916;28;20198;-71
2022/10/05 11:49:01;;;;;;;0.45;0.45;;;19.80;99.90;19.90;101232.00;;;;5035736;28;20179;-71
2022/10/05 11:51:42;;;;;;;0.40;0.40;;;19.50;99.90;20.80;101245.00;;;;5035288;28;20213;-71
2022/10/05 11:54:36;;;;;;;1.17;1.08;;;19.90;99.90;19.80;101234.00;;;;5034582;28;20202;-65
2022/10/05 11:57:48;;;;;;;0.65;0.65;;;19.60;99.90;20.00;101226.00;;;;5034805;28;20179;-71
2022/10/05 12:00:22;;;;;;;0.47;0.47;;;19.50;99.90;19.80;101194.00;;;;5016260;28;20195;-70
2022/10/05 12:03:08;;;;;;;7.70;7.22;;;19.40;99.90;20.20;101215.00;;;;5045344;28;20376;-72
2022/10/05 12:06:02;;;;;;;1.10;1.10;;;19.50;99.90;19.60;101226.00;;;;5053565;28;20260;-71
2022/10/05 12:08:38;;;;;;;0.73;0.73;;;19.50;99.90;20.00;101229.00;;;;5055261;28;20209;-70
2022/10/05 12:11:49;;;;;;;0.68;0.68;;;19.50;99.90;20.90;101232.00;;;;5054064;28;20178;-71
2022/10/05 12:15:01;;;;;;;10.23;1.70;;;19.80;99.90;19.30;101218.00;;;;5054139;28;20584;-70
2022/10/05 12:17:45;;;;;;;0.40;0.40;;;19.60;99.90;19.40;101207.00;;;;5053855;28;20182;-72
2022/10/05 12:20:28;;;;;;;1.98;1.83;;;19.20;99.90;19.40;101191.00;;;;5055414;28;20167;-71
2022/10/05 12:23:20;;;;;;;0.85;0.85;;;19.00;99.90;18.80;101196.00;;;;5053058;28;20217;-71
2022/10/05 12:26:39;;;;;;;0.17;0.17;;;18.80;99.90;20.60;101214.00;;;;5049114;28;20945;-71
2022/10/05 12:29:23;;;;;;;1.05;0.95;;;19.40;99.90;20.30;101225.00;;;;5050420;28;20285;-71
2022/10/05 12:32:10;;;;;;;0.20;0.20;;;19.80;99.90;20.10;101220.00;;;;5054914;28;20672;-72
2022/10/05 12:34:57;;;;;;;1.05;0.95;;;19.40;99.90;20.00;101225.00;;;;5054968;28;20178;-72
2022/10/05 12:37:45;;;;;;;0.20;0.20;;;19.50;99.90;19.80;101214.00;;;;5053196;28;20609;-72
2022/10/05 12:40:34;;;;;;;0.28;0.28;;;19.30;99.90;19.70;101216.00;;;;5053812;28;20174;-72
2022/10/05 12:43:25;;;;;;;0.68;0.68;;;19.20;99.90;19.30;101207.00;;;;5054904;28;20170;-72
2022/10/05 12:45:51;;;;;;;2.67;0.90;;;18.90;99.90;19.00;101181.00;;;;5054829;28;20174;-71